sensor_id;sensor_type;location;lat;lon;timestamp;pressure;altitude;pressure_sealevel;temperature
64296;BMP280;51082;38.236;15.432;2023-02-04T00:00:52;102305.97;;;12.78
64296;BMP280;51082;38.236;15.432;2023-02-04T00:01:53;102293.69;;;12.86
64296;BMP280;51082;38.236;15.432;2023-02-04T00:02:56;102287.84;;;12.93
64296;BMP280;51082;38.236;15.432;2023-02-04T00:03:57;102287.34;;;12.97
64296;BMP280;51082;38.236;15.432;2023-02-04T00:05:02;102282.75;;;12.99
64296;BMP280;51082;38.236;15.432;2023-02-04T00:06:04;102283.22;;;13.03
64296;BMP280;51082;38.236;15.432;2023-02-04T00:07:06;102280.13;;;12.99
64296;BMP280;51082;38.236;15.432;2023-02-04T00:08:08;102285.19;;;13.01
64296;BMP280;51082;38.236;15.432;2023-02-04T00:09:11;102271.66;;;13.05
64296;BMP280;51082;38.236;15.432;2023-02-04T00:10:13;102280.47;;;13.04
64296;BMP280;51082;38.236;15.432;2023-02-04T00:11:15;102270.31;;;12.93
64296;BMP280;51082;38.236;15.432;2023-02-04T00:12:17;102276.88;;;12.97
64296;BMP280;51082;38.236;15.432;2023-02-04T00:13:20;102267.41;;;12.96
64296;BMP280;51082;38.236;15.432;2023-02-04T00:14:21;102274.25;;;12.97
64296;BMP280;51082;38.236;15.432;2023-02-04T00:15:24;102266.72;;;13.02
64296;BMP280;51082;38.236;15.432;2023-02-04T00:16:27;102269.34;;;13.02
64296;BMP280;51082;38.236;15.432;2023-02-04T00:17:28;102265.09;;;13.01
64296;BMP280;51082;38.236;15.432;2023-02-04T00:18:31;102270.53;;;12.92
64296;BMP280;51082;38.236;15.432;2023-02-04T00:19:33;102271.66;;;12.89
64296;BMP280;51082;38.236;15.432;2023-02-04T00:20:37;102267.91;;;12.92
64296;BMP280;51082;38.236;15.432;2023-02-04T00:21:38;102266.13;;;12.92
64296;BMP280;51082;38.236;15.432;2023-02-04T00:22:41;102260.56;;;12.95
64296;BMP280;51082;38.236;15.432;2023-02-04T00:23:42;102264.78;;;12.96
64296;BMP280;51082;38.236;15.432;2023-02-04T00:24:45;102264.78;;;12.88
64296;BMP280;51082;38.236;15.432;2023-02-04T00:25:49;102264.78;;;12.88
64296;BMP280;51082;38.236;15.432;2023-02-04T00:26:52;102265.47;;;12.82
64296;BMP280;51082;38.236;15.432;2023-02-04T00:27:54;102257.94;;;12.87
64296;BMP280;51082;38.236;15.432;2023-02-04T00:28:56;102257.28;;;12.85
64296;BMP280;51082;38.236;15.432;2023-02-04T00:29:58;102254.97;;;12.90
64296;BMP280;51082;38.236;15.432;2023-02-04T00:31:01;102253.34;;;12.81
64296;BMP280;51082;38.236;15.432;2023-02-04T00:32:02;102250.13;;;12.79
64296;BMP280;51082;38.236;15.432;2023-02-04T00:33:05;102247.97;;;12.74
64296;BMP280;51082;38.236;15.432;2023-02-04T00:34:07;102249.44;;;12.77
64296;BMP280;51082;38.236;15.432;2023-02-04T00:35:09;102241.59;;;12.85
64296;BMP280;51082;38.236;15.432;2023-02-04T00:36:12;102239.97;;;12.76
64296;BMP280;51082;38.236;15.432;2023-02-04T00:37:15;102247.50;;;12.79
64296;BMP280;51082;38.236;15.432;2023-02-04T00:38:17;102250.28;;;12.69
64296;BMP280;51082;38.236;15.432;2023-02-04T00:39:20;102246.50;;;12.72
64296;BMP280;51082;38.236;15.432;2023-02-04T00:40:21;102243.91;;;12.72
64296;BMP280;51082;38.236;15.432;2023-02-04T00:41:24;102246.84;;;12.69
64296;BMP280;51082;38.236;15.432;2023-02-04T00:42:25;102241.13;;;12.73
64296;BMP280;51082;38.236;15.432;2023-02-04T00:43:28;102244.22;;;12.77
64296;BMP280;51082;38.236;15.432;2023-02-04T00:44:30;102243.38;;;12.76
64296;BMP280;51082;38.236;15.432;2023-02-04T00:45:33;102241.94;;;12.74
64296;BMP280;51082;38.236;15.432;2023-02-04T00:46:35;102253.88;;;12.68
64296;BMP280;51082;38.236;15.432;2023-02-04T00:47:37;102247.78;;;12.68
64296;BMP280;51082;38.236;15.432;2023-02-04T00:48:39;102255.31;;;12.63
64296;BMP280;51082;38.236;15.432;2023-02-04T00:49:41;102251.75;;;12.64
64296;BMP280;51082;38.236;15.432;2023-02-04T00:50:44;102256.13;;;12.63
64296;BMP280;51082;38.236;15.432;2023-02-04T00:51:47;102254.19;;;12.65
64296;BMP280;51082;38.236;15.432;2023-02-04T00:52:50;102259.56;;;12.55
64296;BMP280;51082;38.236;15.432;2023-02-04T00:53:52;102259.25;;;12.58
64296;BMP280;51082;38.236;15.432;2023-02-04T00:54:55;102248.78;;;12.58
64296;BMP280;51082;38.236;15.432;2023-02-04T00:55:56;102247.97;;;12.58
64296;BMP280;51082;38.236;15.432;2023-02-04T00:56:59;102250.44;;;12.59
64296;BMP280;51082;38.236;15.432;2023-02-04T00:58:01;102250.59;;;12.58
64296;BMP280;51082;38.236;15.432;2023-02-04T00:59:03;102252.56;;;12.64
64296;BMP280;51082;38.236;15.432;2023-02-04T01:00:06;102254.69;;;12.69
64296;BMP280;51082;38.236;15.432;2023-02-04T01:01:08;102262.34;;;12.70
64296;BMP280;51082;38.236;15.432;2023-02-04T01:02:10;102265.13;;;12.77
64296;BMP280;51082;38.236;15.432;2023-02-04T01:03:13;102263.78;;;12.81
64296;BMP280;51082;38.236;15.432;2023-02-04T01:04:15;102261.56;;;12.86
64296;BMP280;51082;38.236;15.432;2023-02-04T01:05:17;102257.94;;;12.87
64296;BMP280;51082;38.236;15.432;2023-02-04T01:06:19;102255.81;;;12.91
64296;BMP280;51082;38.236;15.432;2023-02-04T01:07:23;102251.41;;;12.91
64296;BMP280;51082;38.236;15.432;2023-02-04T01:08:25;102261.38;;;12.96
64296;BMP280;51082;38.236;15.432;2023-02-04T01:09:27;102254.66;;;12.93
64296;BMP280;51082;38.236;15.432;2023-02-04T01:10:29;102249.25;;;12.95
64296;BMP280;51082;38.236;15.432;2023-02-04T01:11:32;102256.28;;;12.94
64296;BMP280;51082;38.236;15.432;2023-02-04T01:12:33;102252.69;;;12.95
64296;BMP280;51082;38.236;15.432;2023-02-04T01:13:36;102262.19;;;12.96
64296;BMP280;51082;38.236;15.432;2023-02-04T01:14:37;102257.47;;;12.92
64296;BMP280;51082;38.236;15.432;2023-02-04T01:15:40;102261.50;;;12.94
64296;BMP280;51082;38.236;15.432;2023-02-04T01:16:42;102262.81;;;12.98
64296;BMP280;51082;38.236;15.432;2023-02-04T01:17:45;102258.59;;;12.97
64296;BMP280;51082;38.236;15.432;2023-02-04T01:18:47;102270.66;;;12.98
64296;BMP280;51082;38.236;15.432;2023-02-04T01:19:49;102265.09;;;13.01
64296;BMP280;51082;38.236;15.432;2023-02-04T01:20:51;102263.00;;;13.05
64296;BMP280;51082;38.236;15.432;2023-02-04T01:21:54;102262.50;;;13.09
64296;BMP280;51082;38.236;15.432;2023-02-04T01:22:57;102266.41;;;13.05
64296;BMP280;51082;38.236;15.432;2023-02-04T01:24:00;102261.19;;;13.05
64296;BMP280;51082;38.236;15.432;2023-02-04T01:25:02;102263.59;;;13.07
64296;BMP280;51082;38.236;15.432;2023-02-04T01:26:05;102263.97;;;13.04
64296;BMP280;51082;38.236;15.432;2023-02-04T01:27:06;102261.50;;;13.02
64296;BMP280;51082;38.236;15.432;2023-02-04T01:28:09;102270.31;;;13.01
64296;BMP280;51082;38.236;15.432;2023-02-04T01:29:11;102254.00;;;12.99
64296;BMP280;51082;38.236;15.432;2023-02-04T01:30:14;102258.88;;;12.94
64296;BMP280;51082;38.236;15.432;2023-02-04T01:31:16;102259.88;;;12.93
64296;BMP280;51082;38.236;15.432;2023-02-04T01:32:19;102258.88;;;12.94
64296;BMP280;51082;38.236;15.432;2023-02-04T01:33:21;102257.59;;;12.90
64296;BMP280;51082;38.236;15.432;2023-02-04T01:34:23;102264.47;;;12.91
64296;BMP280;51082;38.236;15.432;2023-02-04T01:35:26;102259.88;;;12.93
64296;BMP280;51082;38.236;15.432;2023-02-04T01:36:28;102260.88;;;12.92
64296;BMP280;51082;38.236;15.432;2023-02-04T01:37:30;102257.47;;;12.92
64296;BMP280;51082;38.236;15.432;2023-02-04T01:38:34;102260.88;;;12.92
64296;BMP280;51082;38.236;15.432;2023-02-04T01:39:36;102256.47;;;12.93
64296;BMP280;51082;38.236;15.432;2023-02-04T01:40:39;102246.00;;;12.84
64296;BMP280;51082;38.236;15.432;2023-02-04T01:41:41;102246.19;;;12.83
64296;BMP280;51082;38.236;15.432;2023-02-04T01:42:43;102243.25;;;12.70
64296;BMP280;51082;38.236;15.432;2023-02-04T01:43:45;102238.53;;;12.65
64296;BMP280;51082;38.236;15.432;2023-02-04T01:44:49;102234.72;;;12.68
64296;BMP280;51082;38.236;15.432;2023-02-04T01:45:51;102234.72;;;12.68
64296;BMP280;51082;38.236;15.432;2023-02-04T01:46:54;102241.31;;;12.64
64296;BMP280;51082;38.236;15.432;2023-02-04T01:47:55;102241.44;;;12.62
64296;BMP280;51082;38.236;15.432;2023-02-04T01:48:58;102238.34;;;12.58
64296;BMP280;51082;38.236;15.432;2023-02-04T01:50:00;102240.63;;;12.62
64296;BMP280;51082;38.236;15.432;2023-02-04T01:51:06;102247.66;;;12.61
64296;BMP280;51082;38.236;15.432;2023-02-04T01:52:08;102235.91;;;12.65
64296;BMP280;51082;38.236;15.432;2023-02-04T01:53:12;102243.91;;;12.64
64296;BMP280;51082;38.236;15.432;2023-02-04T01:54:15;102242.59;;;12.59
64296;BMP280;51082;38.236;15.432;2023-02-04T01:55:21;102239.50;;;12.56
64296;BMP280;51082;38.236;15.432;2023-02-04T01:56:25;102236.38;;;12.61
64296;BMP280;51082;38.236;15.432;2023-02-04T01:57:28;102240.63;;;12.62
64296;BMP280;51082;38.236;15.432;2023-02-04T01:58:31;102235.72;;;12.67
64296;BMP280;51082;38.236;15.432;2023-02-04T01:59:34;102236.41;;;12.69
64296;BMP280;51082;38.236;15.432;2023-02-04T02:00:36;102237.03;;;12.71
64296;BMP280;51082;38.236;15.432;2023-02-04T02:01:41;102237.03;;;12.71
64296;BMP280;51082;38.236;15.432;2023-02-04T02:02:45;102239.00;;;12.69
64296;BMP280;51082;38.236;15.432;2023-02-04T02:03:47;102239.16;;;12.75
64296;BMP280;51082;38.236;15.432;2023-02-04T02:04:49;102238.66;;;12.80
64296;BMP280;51082;38.236;15.432;2023-02-04T02:05:53;102240.28;;;12.81
64296;BMP280;51082;38.236;15.432;2023-02-04T02:06:57;102232.63;;;12.79
64296;BMP280;51082;38.236;15.432;2023-02-04T02:08:03;102234.75;;;12.76
64296;BMP280;51082;38.236;15.432;2023-02-04T02:09:05;102231.16;;;12.77
64296;BMP280;51082;38.236;15.432;2023-02-04T02:10:11;102232.28;;;12.74
64296;BMP280;51082;38.236;15.432;2023-02-04T02:11:13;102223.97;;;12.71
64296;BMP280;51082;38.236;15.432;2023-02-04T02:12:16;102218.59;;;12.72
64296;BMP280;51082;38.236;15.432;2023-02-04T02:13:18;102218.41;;;12.74
64296;BMP280;51082;38.236;15.432;2023-02-04T02:14:21;102219.75;;;12.70
64296;BMP280;51082;38.236;15.432;2023-02-04T02:15:23;102227.06;;;12.74
64296;BMP280;51082;38.236;15.432;2023-02-04T02:16:27;102226.91;;;12.76
64296;BMP280;51082;38.236;15.432;2023-02-04T02:17:29;102222.34;;;12.78
64296;BMP280;51082;38.236;15.432;2023-02-04T02:18:33;102225.28;;;12.83
64296;BMP280;51082;38.236;15.432;2023-02-04T02:19:36;102223.78;;;12.88
64296;BMP280;51082;38.236;15.432;2023-02-04T02:20:42;102222.97;;;12.88
64296;BMP280;51082;38.236;15.432;2023-02-04T02:21:52;102216.94;;;12.87
64296;BMP280;51082;38.236;15.432;2023-02-04T02:23:01;102218.72;;;12.87
64296;BMP280;51082;38.236;15.432;2023-02-04T02:24:24;102216.13;;;12.87
64296;BMP280;51082;38.236;15.432;2023-02-04T02:25:27;102221.69;;;12.84
64296;BMP280;51082;38.236;15.432;2023-02-04T02:26:29;102217.13;;;12.78
64296;BMP280;51082;38.236;15.432;2023-02-04T02:27:31;102214.66;;;12.84
64296;BMP280;51082;38.236;15.432;2023-02-04T02:28:33;102215.47;;;12.85
64296;BMP280;51082;38.236;15.432;2023-02-04T02:29:37;102212.03;;;12.84
64296;BMP280;51082;38.236;15.432;2023-02-04T02:30:39;102213.84;;;12.84
64296;BMP280;51082;38.236;15.432;2023-02-04T02:31:42;102209.28;;;12.86
64296;BMP280;51082;38.236;15.432;2023-02-04T02:32:44;102208.63;;;12.84
64296;BMP280;51082;38.236;15.432;2023-02-04T02:33:48;102205.34;;;12.82
64296;BMP280;51082;38.236;15.432;2023-02-04T02:34:49;102211.22;;;12.84
64296;BMP280;51082;38.236;15.432;2023-02-04T02:35:52;102206.69;;;12.78
64296;BMP280;51082;38.236;15.432;2023-02-04T02:36:54;102202.41;;;12.77
64296;BMP280;51082;38.236;15.432;2023-02-04T02:37:57;102201.44;;;12.78
64296;BMP280;51082;38.236;15.432;2023-02-04T02:38:58;102202.06;;;12.80
64296;BMP280;51082;38.236;15.432;2023-02-04T02:40:05;102203.56;;;12.82
64296;BMP280;51082;38.236;15.432;2023-02-04T02:41:07;102207.47;;;12.86
64296;BMP280;51082;38.236;15.432;2023-02-04T02:42:13;102200.13;;;12.82
64296;BMP280;51082;38.236;15.432;2023-02-04T02:43:17;102197.03;;;12.78
64296;BMP280;51082;38.236;15.432;2023-02-04T02:44:21;102191.31;;;12.75
64296;BMP280;51082;38.236;15.432;2023-02-04T02:45:24;102190.19;;;12.77
64296;BMP280;51082;38.236;15.432;2023-02-04T02:46:27;102186.06;;;12.75
64296;BMP280;51082;38.236;15.432;2023-02-04T02:47:29;102182.47;;;12.76
64296;BMP280;51082;38.236;15.432;2023-02-04T02:48:32;102189.03;;;12.72
64296;BMP280;51082;38.236;15.432;2023-02-04T02:49:33;102181.03;;;12.73
64296;BMP280;51082;38.236;15.432;2023-02-04T02:50:38;102176.44;;;12.75
64296;BMP280;51082;38.236;15.432;2023-02-04T02:51:41;102176.13;;;12.78
64296;BMP280;51082;38.236;15.432;2023-02-04T02:52:43;102174.50;;;12.77
64296;BMP280;51082;38.236;15.432;2023-02-04T02:53:46;102178.25;;;12.83
64296;BMP280;51082;38.236;15.432;2023-02-04T02:54:49;102179.88;;;12.84
64296;BMP280;51082;38.236;15.432;2023-02-04T02:55:53;102177.94;;;12.86
64296;BMP280;51082;38.236;15.432;2023-02-04T02:56:56;102175.13;;;12.87
64296;BMP280;51082;38.236;15.432;2023-02-04T02:57:59;102180.34;;;12.87
64296;BMP280;51082;38.236;15.432;2023-02-04T02:59:12;102174.63;;;12.92
64296;BMP280;51082;38.236;15.432;2023-02-04T03:00:16;102173.94;;;12.98
64296;BMP280;51082;38.236;15.432;2023-02-04T03:01:19;102181.13;;;13.04
64296;BMP280;51082;38.236;15.432;2023-02-04T03:02:22;102181.44;;;13.01
64296;BMP280;51082;38.236;15.432;2023-02-04T03:03:26;102173.31;;;12.96
64296;BMP280;51082;38.236;15.432;2023-02-04T03:04:32;102177.22;;;13.00
64296;BMP280;51082;38.236;15.432;2023-02-04T03:05:40;102173.94;;;12.98
64296;BMP280;51082;38.236;15.432;2023-02-04T03:06:42;102169.53;;;12.99
64296;BMP280;51082;38.236;15.432;2023-02-04T03:07:45;102176.56;;;12.98
64296;BMP280;51082;38.236;15.432;2023-02-04T03:08:47;102169.22;;;12.94
64296;BMP280;51082;38.236;15.432;2023-02-04T03:09:51;102172.84;;;12.93
64296;BMP280;51082;38.236;15.432;2023-02-04T03:10:55;102166.47;;;12.95
64296;BMP280;51082;38.236;15.432;2023-02-04T03:11:58;102164.78;;;12.94
64296;BMP280;51082;38.236;15.432;2023-02-04T03:13:00;102164.66;;;12.96
64296;BMP280;51082;38.236;15.432;2023-02-04T03:14:03;102159.56;;;12.94
64296;BMP280;51082;38.236;15.432;2023-02-04T03:15:06;102160.75;;;12.92
64296;BMP280;51082;38.236;15.432;2023-02-04T03:16:09;102161.75;;;12.91
64296;BMP280;51082;38.236;15.432;2023-02-04T03:17:11;102159.78;;;12.93
64296;BMP280;51082;38.236;15.432;2023-02-04T03:18:16;102164.19;;;12.92
64296;BMP280;51082;38.236;15.432;2023-02-04T03:19:18;102158.44;;;12.88
64296;BMP280;51082;38.236;15.432;2023-02-04T03:20:21;102162.56;;;12.91
64296;BMP280;51082;38.236;15.432;2023-02-04T03:21:24;102154.72;;;12.91
64296;BMP280;51082;38.236;15.432;2023-02-04T03:22:26;102158.28;;;12.90
64296;BMP280;51082;38.236;15.432;2023-02-04T03:23:28;102155.66;;;12.90
64296;BMP280;51082;38.236;15.432;2023-02-04T03:24:31;102160.75;;;12.92
64296;BMP280;51082;38.236;15.432;2023-02-04T03:25:33;102157.63;;;12.96
64296;BMP280;51082;38.236;15.432;2023-02-04T03:26:37;102153.34;;;13.03
64296;BMP280;51082;38.236;15.432;2023-02-04T03:27:39;102147.47;;;13.09
64296;BMP280;51082;38.236;15.432;2023-02-04T03:28:42;102154.19;;;13.04
64296;BMP280;51082;38.236;15.432;2023-02-04T03:29:44;102152.06;;;12.99
64296;BMP280;51082;38.236;15.432;2023-02-04T03:30:46;102148.31;;;12.94
64296;BMP280;51082;38.236;15.432;2023-02-04T03:31:55;102153.53;;;12.94
64296;BMP280;51082;38.236;15.432;2023-02-04T03:32:59;102154.72;;;12.91
64296;BMP280;51082;38.236;15.432;2023-02-04T03:34:01;102153.06;;;12.90
64296;BMP280;51082;38.236;15.432;2023-02-04T03:35:04;102150.09;;;12.93
64296;BMP280;51082;38.236;15.432;2023-02-04T03:36:07;102148.00;;;12.97
64296;BMP280;51082;38.236;15.432;2023-02-04T03:37:09;102152.72;;;12.93
64296;BMP280;51082;38.236;15.432;2023-02-04T03:38:11;102138.34;;;12.97
64296;BMP280;51082;38.236;15.432;2023-02-04T03:39:16;102148.16;;;12.95
64296;BMP280;51082;38.236;15.432;2023-02-04T03:40:18;102151.41;;;12.97
64296;BMP280;51082;38.236;15.432;2023-02-04T03:41:21;102155.16;;;12.95
64296;BMP280;51082;38.236;15.432;2023-02-04T03:42:24;102152.72;;;12.93
64296;BMP280;51082;38.236;15.432;2023-02-04T03:43:27;102149.13;;;12.94
64296;BMP280;51082;38.236;15.432;2023-02-04T03:44:28;102136.72;;;12.96
64296;BMP280;51082;38.236;15.432;2023-02-04T03:45:31;102148.28;;;13.02
64296;BMP280;51082;38.236;15.432;2023-02-04T03:46:33;102147.31;;;13.03
64296;BMP280;51082;38.236;15.432;2023-02-04T03:47:35;102148.81;;;12.97
64296;BMP280;51082;38.236;15.432;2023-02-04T03:48:37;102143.22;;;13.00
64296;BMP280;51082;38.236;15.432;2023-02-04T03:49:40;102140.63;;;13.00
64296;BMP280;51082;38.236;15.432;2023-02-04T03:50:41;102134.41;;;13.01
64296;BMP280;51082;38.236;15.432;2023-02-04T03:51:44;102130.81;;;13.02
64296;BMP280;51082;38.236;15.432;2023-02-04T03:52:45;102136.53;;;12.98
64296;BMP280;51082;38.236;15.432;2023-02-04T03:53:49;102131.16;;;12.99
64296;BMP280;51082;38.236;15.432;2023-02-04T03:54:50;102131.78;;;13.01
64296;BMP280;51082;38.236;15.432;2023-02-04T03:55:53;102118.41;;;12.96
64296;BMP280;51082;38.236;15.432;2023-02-04T03:56:54;102124.97;;;12.92
64296;BMP280;51082;38.236;15.432;2023-02-04T03:57:58;102121.03;;;12.96
64296;BMP280;51082;38.236;15.432;2023-02-04T03:59:00;102120.69;;;12.99
64296;BMP280;51082;38.236;15.432;2023-02-04T04:00:03;102114.81;;;13.05
64296;BMP280;51082;38.236;15.432;2023-02-04T04:01:05;102117.72;;;13.02
64296;BMP280;51082;38.236;15.432;2023-02-04T04:02:08;102124.59;;;13.03
64296;BMP280;51082;38.236;15.432;2023-02-04T04:03:09;102120.34;;;13.02
64296;BMP280;51082;38.236;15.432;2023-02-04T04:04:14;102126.06;;;13.06
64296;BMP280;51082;38.236;15.432;2023-02-04T04:05:15;102122.94;;;13.10
64296;BMP280;51082;38.236;15.432;2023-02-04T04:06:18;102115.38;;;13.15
64296;BMP280;51082;38.236;15.432;2023-02-04T04:07:19;102116.38;;;13.14
64296;BMP280;51082;38.236;15.432;2023-02-04T04:08:22;102116.22;;;13.16
64296;BMP280;51082;38.236;15.432;2023-02-04T04:09:24;102119.63;;;13.16
64296;BMP280;51082;38.236;15.432;2023-02-04T04:10:26;102115.06;;;13.18
64296;BMP280;51082;38.236;15.432;2023-02-04T04:11:32;102108.34;;;13.24
64296;BMP280;51082;38.236;15.432;2023-02-04T04:12:34;102114.38;;;13.25
64296;BMP280;51082;38.236;15.432;2023-02-04T04:13:38;102096.72;;;13.27
64296;BMP280;51082;38.236;15.432;2023-02-04T04:14:40;102094.75;;;13.29
64296;BMP280;51082;38.236;15.432;2023-02-04T04:15:42;102099.97;;;13.29
64296;BMP280;51082;38.236;15.432;2023-02-04T04:16:45;102102.59;;;13.29
64296;BMP280;51082;38.236;15.432;2023-02-04T04:17:46;102105.19;;;13.29
64296;BMP280;51082;38.236;15.432;2023-02-04T04:18:49;102101.59;;;13.30
64296;BMP280;51082;38.236;15.432;2023-02-04T04:19:50;102108.78;;;13.36
64296;BMP280;51082;38.236;15.432;2023-02-04T04:20:53;102098.84;;;13.31
64296;BMP280;51082;38.236;15.432;2023-02-04T04:21:55;102102.88;;;13.34
64296;BMP280;51082;38.236;15.432;2023-02-04T04:22:57;102092.91;;;13.37
64296;BMP280;51082;38.236;15.432;2023-02-04T04:23:59;102099.28;;;13.35
64296;BMP280;51082;38.236;15.432;2023-02-04T04:25:03;102099.44;;;13.33
64296;BMP280;51082;38.236;15.432;2023-02-04T04:26:05;102108.09;;;13.34
64296;BMP280;51082;38.236;15.432;2023-02-04T04:27:08;102103.53;;;13.36
64296;BMP280;51082;38.236;15.432;2023-02-04T04:28:10;102109.72;;;13.35
64296;BMP280;51082;38.236;15.432;2023-02-04T04:29:14;102116.63;;;13.36
64296;BMP280;51082;38.236;15.432;2023-02-04T04:30:16;102110.72;;;13.34
64296;BMP280;51082;38.236;15.432;2023-02-04T04:31:19;102109.72;;;13.35
64296;BMP280;51082;38.236;15.432;2023-02-04T04:32:21;102103.25;;;13.31
64296;BMP280;51082;38.236;15.432;2023-02-04T04:33:23;102098.63;;;13.33
64296;BMP280;51082;38.236;15.432;2023-02-04T04:34:25;102102.06;;;13.33
64296;BMP280;51082;38.236;15.432;2023-02-04T04:35:28;102089.66;;;13.35
64296;BMP280;51082;38.236;15.432;2023-02-04T04:36:29;102101.25;;;13.33
64296;BMP280;51082;38.236;15.432;2023-02-04T04:37:32;102096.03;;;13.33
64296;BMP280;51082;38.236;15.432;2023-02-04T04:38:35;102096.03;;;13.33
64296;BMP280;51082;38.236;15.432;2023-02-04T04:39:37;102101.88;;;13.35
64296;BMP280;51082;38.236;15.432;2023-02-04T04:40:39;102100.94;;;13.36
64296;BMP280;51082;38.236;15.432;2023-02-04T04:41:42;102093.72;;;13.38
64296;BMP280;51082;38.236;15.432;2023-02-04T04:42:43;102093.72;;;13.38
64296;BMP280;51082;38.236;15.432;2023-02-04T04:43:46;102096.97;;;13.40
64296;BMP280;51082;38.236;15.432;2023-02-04T04:44:49;102100.13;;;13.35
64296;BMP280;51082;38.236;15.432;2023-02-04T04:45:52;102100.94;;;13.36
64296;BMP280;51082;38.236;15.432;2023-02-04T04:46:54;102097.31;;;13.37
64296;BMP280;51082;38.236;15.432;2023-02-04T04:47:57;102094.34;;;13.40
64296;BMP280;51082;38.236;15.432;2023-02-04T04:48:58;102089.75;;;13.42
64296;BMP280;51082;38.236;15.432;2023-02-04T04:50:01;102092.56;;;13.40
64296;BMP280;51082;38.236;15.432;2023-02-04T04:51:03;102095.69;;;13.36
64296;BMP280;51082;38.236;15.432;2023-02-04T04:52:06;102088.81;;;13.35
64296;BMP280;51082;38.236;15.432;2023-02-04T04:53:08;102081.63;;;13.37
64296;BMP280;51082;38.236;15.432;2023-02-04T04:54:11;102082.75;;;13.34
64296;BMP280;51082;38.236;15.432;2023-02-04T04:55:13;102085.09;;;13.29
64296;BMP280;51082;38.236;15.432;2023-02-04T04:56:16;102091.00;;;13.31
64296;BMP280;51082;38.236;15.432;2023-02-04T04:57:19;102091.81;;;13.32
64296;BMP280;51082;38.236;15.432;2023-02-04T04:58:22;102081.50;;;13.30
64296;BMP280;51082;38.236;15.432;2023-02-04T04:59:24;102090.78;;;13.33
64296;BMP280;51082;38.236;15.432;2023-02-04T05:00:28;102102.88;;;13.34
64296;BMP280;51082;38.236;15.432;2023-02-04T05:01:29;102095.56;;;13.29
64296;BMP280;51082;38.236;15.432;2023-02-04T05:02:32;102095.09;;;13.26
64296;BMP280;51082;38.236;15.432;2023-02-04T05:03:34;102095.09;;;13.26
64296;BMP280;51082;38.236;15.432;2023-02-04T05:04:36;102093.13;;;13.28
64296;BMP280;51082;38.236;15.432;2023-02-04T05:05:38;102090.50;;;13.28
64296;BMP280;51082;38.236;15.432;2023-02-04T05:06:41;102091.16;;;13.22
64296;BMP280;51082;38.236;15.432;2023-02-04T05:07:42;102087.94;;;13.20
64296;BMP280;51082;38.236;15.432;2023-02-04T05:08:45;102083.19;;;13.23
64296;BMP280;51082;38.236;15.432;2023-02-04T05:09:47;102079.41;;;13.26
64296;BMP280;51082;38.236;15.432;2023-02-04T05:10:49;102076.84;;;13.17
64296;BMP280;51082;38.236;15.432;2023-02-04T05:11:51;102067.50;;;13.23
64296;BMP280;51082;38.236;15.432;2023-02-04T05:12:54;102066.22;;;13.19
64296;BMP280;51082;38.236;15.432;2023-02-04T05:13:55;102067.63;;;13.22
64296;BMP280;51082;38.236;15.432;2023-02-04T05:14:58;102062.78;;;13.18
64296;BMP280;51082;38.236;15.432;2023-02-04T05:16:01;102065.88;;;13.22
64296;BMP280;51082;38.236;15.432;2023-02-04T05:17:04;102061.09;;;13.26
64296;BMP280;51082;38.236;15.432;2023-02-04T05:18:06;102064.69;;;13.25
64296;BMP280;51082;38.236;15.432;2023-02-04T05:19:09;102066.16;;;13.27
64296;BMP280;51082;38.236;15.432;2023-02-04T05:20:11;102067.31;;;13.25
64296;BMP280;51082;38.236;15.432;2023-02-04T05:21:13;102071.09;;;13.22
64296;BMP280;51082;38.236;15.432;2023-02-04T05:22:15;102074.88;;;13.20
64296;BMP280;51082;38.236;15.432;2023-02-04T05:23:18;102072.75;;;13.15
64296;BMP280;51082;38.236;15.432;2023-02-04T05:24:19;102070.78;;;13.17
64296;BMP280;51082;38.236;15.432;2023-02-04T05:25:22;102063.59;;;13.19
64296;BMP280;51082;38.236;15.432;2023-02-04T05:26:23;102074.22;;;13.17
64296;BMP280;51082;38.236;15.432;2023-02-04T05:27:27;102070.56;;;13.27
64296;BMP280;51082;38.236;15.432;2023-02-04T05:28:28;102075.09;;;13.33
64296;BMP280;51082;38.236;15.432;2023-02-04T05:29:31;102073.50;;;13.32
64296;BMP280;51082;38.236;15.432;2023-02-04T05:30:32;102070.06;;;13.31
64296;BMP280;51082;38.236;15.432;2023-02-04T05:31:37;102071.50;;;13.34
64296;BMP280;51082;38.236;15.432;2023-02-04T05:32:38;102071.88;;;13.31
64296;BMP280;51082;38.236;15.432;2023-02-04T05:33:41;102070.69;;;13.33
64296;BMP280;51082;38.236;15.432;2023-02-04T05:34:42;102066.50;;;13.24
64296;BMP280;51082;38.236;15.432;2023-02-04T05:35:45;102065.50;;;13.25
64296;BMP280;51082;38.236;15.432;2023-02-04T05:36:47;102070.91;;;13.24
64296;BMP280;51082;38.236;15.432;2023-02-04T05:37:50;102067.63;;;13.22
64296;BMP280;51082;38.236;15.432;2023-02-04T05:38:51;102068.34;;;13.15
64296;BMP280;51082;38.236;15.432;2023-02-04T05:39:54;102065.19;;;13.20
64296;BMP280;51082;38.236;15.432;2023-02-04T05:40:56;102057.56;;;13.18
64296;BMP280;51082;38.236;15.432;2023-02-04T05:41:58;102055.44;;;13.14
64296;BMP280;51082;38.236;15.432;2023-02-04T05:43:00;102054.63;;;13.13
64296;BMP280;51082;38.236;15.432;2023-02-04T05:44:03;102057.06;;;13.15
64296;BMP280;51082;38.236;15.432;2023-02-04T05:45:06;102054.00;;;13.03
64296;BMP280;51082;38.236;15.432;2023-02-04T05:46:09;102054.97;;;13.10
64296;BMP280;51082;38.236;15.432;2023-02-04T05:47:12;102045.78;;;13.14
64296;BMP280;51082;38.236;15.432;2023-02-04T05:48:15;102048.22;;;13.16
64296;BMP280;51082;38.236;15.432;2023-02-04T05:49:17;102047.41;;;13.15
64296;BMP280;51082;38.236;15.432;2023-02-04T05:50:19;102045.78;;;13.14
64296;BMP280;51082;38.236;15.432;2023-02-04T05:51:21;102040.25;;;13.17